sensor_id;sensor_type;location;lat;lon;timestamp;pressure;altitude;pressure_sealevel;temperature;humidity
74798;BME280;63326;45.088;7.658;2024-03-23T00:55:24;98577.22;;;8.81;100.00
74798;BME280;63326;45.088;7.658;2024-03-23T00:57:55;98555.47;;;8.76;100.00
74798;BME280;63326;45.088;7.658;2024-03-23T01:00:21;98597.00;;;8.95;100.00
74798;BME280;63326;45.088;7.658;2024-03-23T01:02:53;98494.22;;;8.35;100.00
74798;BME280;63326;45.088;7.658;2024-03-23T01:05:19;98562.91;;;8.66;100.00
74798;BME280;63326;45.088;7.658;2024-03-23T01:07:48;98557.09;;;8.62;100.00
74798;BME280;63326;45.088;7.658;2024-03-23T01:10:16;98426.25;;;7.76;100.00
74798;BME280;63326;45.088;7.658;2024-03-23T01:12:43;98583.09;;;8.76;100.00
74798;BME280;63326;45.088;7.658;2024-03-23T01:15:08;98488.28;;;8.25;100.00
74798;BME280;63326;45.088;7.658;2024-03-23T01:17:35;98542.19;;;8.60;100.00
74798;BME280;63326;45.088;7.658;2024-03-23T01:20:02;98566.50;;;8.81;100.00
74798;BME280;63326;45.088;7.658;2024-03-23T01:22:28;98558.97;;;8.76;100.00
74798;BME280;63326;45.088;7.658;2024-03-23T01:24:54;98552.91;;;8.60;100.00
74798;BME280;63326;45.088;7.658;2024-03-23T01:27:20;98566.47;;;8.58;100.00
74798;BME280;63326;45.088;7.658;2024-03-23T01:29:47;98521.75;;;8.21;100.00
74798;BME280;63326;45.088;7.658;2024-03-23T01:32:13;98518.94;;;8.14;100.00
74798;BME280;63326;45.088;7.658;2024-03-23T01:34:40;98522.44;;;8.15;100.00
74798;BME280;63326;45.088;7.658;2024-03-23T01:37:06;98533.63;;;8.18;100.00
74798;BME280;63326;45.088;7.658;2024-03-23T01:39:34;98524.38;;;7.98;100.00
74798;BME280;63326;45.088;7.658;2024-03-23T01:42:03;98563.88;;;8.19;100.00
74798;BME280;63326;45.088;7.658;2024-03-23T01:44:29;98531.72;;;7.96;100.00
74798;BME280;63326;45.088;7.658;2024-03-23T01:46:57;98566.91;;;8.16;100.00
74798;BME280;63326;45.088;7.658;2024-03-23T01:49:23;98548.50;;;8.21;100.00
74798;BME280;63326;45.088;7.658;2024-03-23T01:51:52;98480.91;;;7.73;100.00
74798;BME280;63326;45.088;7.658;2024-03-23T01:54:20;98539.16;;;8.17;100.00
74798;BME280;63326;45.088;7.658;2024-03-23T01:56:46;98553.28;;;8.34;100.00
74798;BME280;63326;45.088;7.658;2024-03-23T01:59:12;98547.09;;;8.33;100.00
74798;BME280;63326;45.088;7.658;2024-03-23T02:01:39;98511.09;;;8.13;100.00
74798;BME280;63326;45.088;7.658;2024-03-23T02:04:07;98527.44;;;8.18;100.00
74798;BME280;63326;45.088;7.658;2024-03-23T02:06:36;98550.84;;;8.16;100.00
74798;BME280;63326;45.088;7.658;2024-03-23T02:09:03;98540.88;;;8.10;100.00
74798;BME280;63326;45.088;7.658;2024-03-23T02:11:30;98523.91;;;7.94;100.00
74798;BME280;63326;45.088;7.658;2024-03-23T02:13:56;98532.28;;;7.91;100.00
74798;BME280;63326;45.088;7.658;2024-03-23T02:16:24;98532.25;;;8.00;100.00
74798;BME280;63326;45.088;7.658;2024-03-23T02:18:55;98453.72;;;7.61;100.00
74798;BME280;63326;45.088;7.658;2024-03-23T02:21:26;98517.94;;;8.15;100.00
74798;BME280;63326;45.088;7.658;2024-03-23T02:23:53;98502.09;;;8.06;100.00
74798;BME280;63326;45.088;7.658;2024-03-23T02:26:20;98486.88;;;8.06;100.00
74798;BME280;63326;45.088;7.658;2024-03-23T02:28:46;98505.53;;;8.22;100.00
74798;BME280;63326;45.088;7.658;2024-03-23T02:31:12;98520.69;;;8.30;100.00
74798;BME280;63326;45.088;7.658;2024-03-23T02:33:40;98513.22;;;8.17;100.00
74798;BME280;63326;45.088;7.658;2024-03-23T02:36:07;98487.63;;;8.00;100.00
74798;BME280;63326;45.088;7.658;2024-03-23T02:38:34;98511.50;;;8.02;100.00
74798;BME280;63326;45.088;7.658;2024-03-23T02:41:04;98475.47;;;7.89;100.00
74798;BME280;63326;45.088;7.658;2024-03-23T02:43:31;98421.34;;;7.56;100.00
74798;BME280;63326;45.088;7.658;2024-03-23T02:45:58;98489.81;;;7.88;100.00
74798;BME280;63326;45.088;7.658;2024-03-23T02:48:24;98498.91;;;8.10;100.00
74798;BME280;63326;45.088;7.658;2024-03-23T02:50:51;98416.34;;;7.53;100.00
74798;BME280;63326;45.088;7.658;2024-03-23T02:53:18;98456.38;;;7.70;100.00
74798;BME280;63326;45.088;7.658;2024-03-23T02:55:43;98490.91;;;7.79;100.00
74798;BME280;63326;45.088;7.658;2024-03-23T02:58:10;98475.63;;;7.57;100.00
74798;BME280;63326;45.088;7.658;2024-03-23T03:00:38;98503.69;;;7.92;100.00
74798;BME280;63326;45.088;7.658;2024-03-23T03:03:06;98431.22;;;7.48;100.00
74798;BME280;63326;45.088;7.658;2024-03-23T03:05:34;98464.09;;;7.56;100.00
74798;BME280;63326;45.088;7.658;2024-03-23T03:08:00;98476.53;;;7.80;100.00
74798;BME280;63326;45.088;7.658;2024-03-23T03:10:26;98476.63;;;7.87;100.00
74798;BME280;63326;45.088;7.658;2024-03-23T03:12:52;98490.28;;;8.00;100.00
74798;BME280;63326;45.088;7.658;2024-03-23T03:15:19;98490.78;;;7.95;100.00
74798;BME280;63326;45.088;7.658;2024-03-23T03:17:45;98436.09;;;7.44;100.00
74798;BME280;63326;45.088;7.658;2024-03-23T03:20:13;98480.53;;;7.76;100.00
74798;BME280;63326;45.088;7.658;2024-03-23T03:22:42;98440.22;;;7.55;100.00
74798;BME280;63326;45.088;7.658;2024-03-23T03:25:10;98435.75;;;7.47;100.00
74798;BME280;63326;45.088;7.658;2024-03-23T03:27:37;98479.91;;;7.66;100.00
74798;BME280;63326;45.088;7.658;2024-03-23T03:30:05;98458.34;;;7.36;100.00
74798;BME280;63326;45.088;7.658;2024-03-23T03:32:33;98445.00;;;7.28;100.00
74798;BME280;63326;45.088;7.658;2024-03-23T03:34:59;98429.63;;;7.39;100.00
74798;BME280;63326;45.088;7.658;2024-03-23T03:37:25;98464.91;;;7.65;100.00
74798;BME280;63326;45.088;7.658;2024-03-23T03:39:50;98435.31;;;7.35;100.00
74798;BME280;63326;45.088;7.658;2024-03-23T03:42:16;98462.94;;;7.59;100.00
74798;BME280;63326;45.088;7.658;2024-03-23T03:44:43;98457.13;;;7.47;100.00
74798;BME280;63326;45.088;7.658;2024-03-23T03:47:09;98439.50;;;7.38;100.00
74798;BME280;63326;45.088;7.658;2024-03-23T03:49:34;98454.16;;;7.34;100.00
74798;BME280;63326;45.088;7.658;2024-03-23T03:52:01;98468.00;;;7.37;100.00
74798;BME280;63326;45.088;7.658;2024-03-23T03:54:27;98452.31;;;7.26;100.00
74798;BME280;63326;45.088;7.658;2024-03-23T03:56:56;98458.69;;;7.25;100.00
74798;BME280;63326;45.088;7.658;2024-03-23T03:59:23;98409.88;;;6.92;100.00
74798;BME280;63326;45.088;7.658;2024-03-23T04:01:49;98422.56;;;6.98;100.00
74798;BME280;63326;45.088;7.658;2024-03-23T04:04:18;98421.22;;;6.94;100.00
74798;BME280;63326;45.088;7.658;2024-03-23T04:06:47;98396.38;;;6.86;100.00
74798;BME280;63326;45.088;7.658;2024-03-23T04:09:13;98359.63;;;6.57;100.00
74798;BME280;63326;45.088;7.658;2024-03-23T04:11:41;98424.50;;;7.13;100.00
74798;BME280;63326;45.088;7.658;2024-03-23T04:14:15;98429.66;;;7.22;100.00
74798;BME280;63326;45.088;7.658;2024-03-23T04:16:41;98449.16;;;7.31;100.00
74798;BME280;63326;45.088;7.658;2024-03-23T04:19:07;98445.66;;;7.30;100.00
74798;BME280;63326;45.088;7.658;2024-03-23T04:21:34;98456.66;;;7.35;100.00
74798;BME280;63326;45.088;7.658;2024-03-23T04:24:00;98371.53;;;6.85;100.00
74798;BME280;63326;45.088;7.658;2024-03-23T04:26:26;98413.47;;;7.16;100.00
74798;BME280;63326;45.088;7.658;2024-03-23T04:28:53;98409.31;;;7.13;100.00
74798;BME280;63326;45.088;7.658;2024-03-23T04:31:19;98384.84;;;7.01;100.00
74798;BME280;63326;45.088;7.658;2024-03-23T04:33:45;98414.81;;;7.20;100.00
74798;BME280;63326;45.088;7.658;2024-03-23T04:36:11;98410.00;;;7.07;100.00
74798;BME280;63326;45.088;7.658;2024-03-23T04:38:37;98401.69;;;7.02;100.00
74798;BME280;63326;45.088;7.658;2024-03-23T04:41:04;98390.41;;;6.84;100.00
74798;BME280;63326;45.088;7.658;2024-03-23T04:43:30;98381.94;;;6.72;100.00
74798;BME280;63326;45.088;7.658;2024-03-23T04:45:57;98374.75;;;6.72;100.00
74798;BME280;63326;45.088;7.658;2024-03-23T04:48:24;98379.38;;;6.87;100.00
74798;BME280;63326;45.088;7.658;2024-03-23T04:50:57;98424.34;;;7.06;100.00
74798;BME280;63326;45.088;7.658;2024-03-23T04:53:25;98388.38;;;6.86;100.00
74798;BME280;63326;45.088;7.658;2024-03-23T04:55:57;98426.31;;;7.20;100.00
74798;BME280;63326;45.088;7.658;2024-03-23T04:58:25;98413.31;;;7.17;100.00
74798;BME280;63326;45.088;7.658;2024-03-23T05:00:56;98375.56;;;6.81;100.00
74798;BME280;63326;45.088;7.658;2024-03-23T05:03:23;98433.72;;;7.02;100.00
74798;BME280;63326;45.088;7.658;2024-03-23T05:05:49;98407.06;;;6.86;100.00
74798;BME280;63326;45.088;7.658;2024-03-23T05:08:17;98398.59;;;6.66;100.00
74798;BME280;63326;45.088;7.658;2024-03-23T05:10:43;98408.59;;;6.80;100.00
74798;BME280;63326;45.088;7.658;2024-03-23T05:13:09;98384.41;;;6.73;100.00
74798;BME280;63326;45.088;7.658;2024-03-23T05:15:39;98415.03;;;7.02;100.00
74798;BME280;63326;45.088;7.658;2024-03-23T05:18:05;98385.75;;;6.77;100.00
74798;BME280;63326;45.088;7.658;2024-03-23T05:20:38;98391.75;;;6.79;100.00
74798;BME280;63326;45.088;7.658;2024-03-23T05:23:05;98422.28;;;6.69;100.00
74798;BME280;63326;45.088;7.658;2024-03-23T05:25:31;98420.94;;;6.73;100.00
74798;BME280;63326;45.088;7.658;2024-03-23T05:27:57;98363.97;;;6.33;100.00
74798;BME280;63326;45.088;7.658;2024-03-23T05:30:23;98381.44;;;6.60;100.00
74798;BME280;63326;45.088;7.658;2024-03-23T05:32:51;98393.41;;;6.80;100.00
74798;BME280;63326;45.088;7.658;2024-03-23T05:35:18;98339.22;;;6.72;100.00
74798;BME280;63326;45.088;7.658;2024-03-23T05:37:44;98337.13;;;6.98;100.00
74798;BME280;63326;45.088;7.658;2024-03-23T05:40:10;98357.06;;;7.19;100.00
74798;BME280;63326;45.088;7.658;2024-03-23T05:42:41;98379.53;;;7.41;100.00
74798;BME280;63326;45.088;7.658;2024-03-23T05:45:09;98357.63;;;7.45;100.00
74798;BME280;63326;45.088;7.658;2024-03-23T05:47:35;98378.88;;;7.70;100.00
74798;BME280;63326;45.088;7.658;2024-03-23T05:50:04;98355.47;;;7.72;100.00
74798;BME280;63326;45.088;7.658;2024-03-23T05:52:33;98352.78;;;7.94;100.00
74798;BME280;63326;45.088;7.658;2024-03-23T05:54:59;98310.38;;;7.91;100.00
74798;BME280;63326;45.088;7.658;2024-03-23T05:57:25;98374.84;;;8.34;100.00
74798;BME280;63326;45.088;7.658;2024-03-23T05:59:52;98374.59;;;8.59;100.00
74798;BME280;63326;45.088;7.658;2024-03-23T06:02:22;98360.75;;;8.70;100.00
74798;BME280;63326;45.088;7.658;2024-03-23T06:04:48;98267.91;;;8.26;100.00
74798;BME280;63326;45.088;7.658;2024-03-23T06:07:18;98352.28;;;8.96;100.00
74798;BME280;63326;45.088;7.658;2024-03-23T06:09:44;98348.13;;;9.23;100.00
74798;BME280;63326;45.088;7.658;2024-03-23T06:12:10;98325.69;;;9.24;100.00
74798;BME280;63326;45.088;7.658;2024-03-23T06:14:37;98346.00;;;9.33;100.00
74798;BME280;63326;45.088;7.658;2024-03-23T06:17:03;98358.94;;;9.65;100.00
74798;BME280;63326;45.088;7.658;2024-03-23T06:19:29;98287.38;;;9.45;100.00
74798;BME280;63326;45.088;7.658;2024-03-23T06:21:55;98225.41;;;9.18;100.00
74798;BME280;63326;45.088;7.658;2024-03-23T06:24:22;98314.69;;;9.76;100.00
74798;BME280;63326;45.088;7.658;2024-03-23T06:26:47;98347.16;;;10.31;99.30
74798;BME280;63326;45.088;7.658;2024-03-23T06:29:13;98347.25;;;10.16;99.14
74798;BME280;63326;45.088;7.658;2024-03-23T06:31:39;98354.38;;;10.30;96.55
74798;BME280;63326;45.088;7.658;2024-03-23T06:34:05;98304.34;;;10.22;95.11
74798;BME280;63326;45.088;7.658;2024-03-23T06:36:32;98198.84;;;9.59;93.81
74798;BME280;63326;45.088;7.658;2024-03-23T06:39:02;98356.94;;;10.66;93.58
74798;BME280;63326;45.088;7.658;2024-03-23T06:41:29;98355.97;;;10.46;95.83
74798;BME280;63326;45.088;7.658;2024-03-23T06:43:55;98361.81;;;10.56;95.63
74798;BME280;63326;45.088;7.658;2024-03-23T06:46:21;98329.66;;;10.35;94.99
74798;BME280;63326;45.088;7.658;2024-03-23T06:48:47;98351.22;;;10.76;94.26
74798;BME280;63326;45.088;7.658;2024-03-23T06:51:14;98296.94;;;10.52;93.60
74798;BME280;63326;45.088;7.658;2024-03-23T06:53:40;98350.84;;;11.20;89.81
74798;BME280;63326;45.088;7.658;2024-03-23T06:56:07;98355.16;;;11.15;90.33
74798;BME280;63326;45.088;7.658;2024-03-23T06:58:33;98366.25;;;11.39;90.22
74798;BME280;63326;45.088;7.658;2024-03-23T07:00:58;98340.38;;;11.38;88.67
74798;BME280;63326;45.088;7.658;2024-03-23T07:03:26;98332.31;;;11.38;88.86
74798;BME280;63326;45.088;7.658;2024-03-23T07:05:52;98331.84;;;11.22;90.27
74798;BME280;63326;45.088;7.658;2024-03-23T07:08:19;98326.63;;;11.07;89.12
74798;BME280;63326;45.088;7.658;2024-03-23T07:10:47;98374.34;;;11.53;89.58
74798;BME280;63326;45.088;7.658;2024-03-23T07:13:14;98364.59;;;11.38;90.63
74798;BME280;63326;45.088;7.658;2024-03-23T07:15:39;98384.28;;;11.52;90.82
74798;BME280;63326;45.088;7.658;2024-03-23T07:18:06;98308.38;;;11.50;88.47
74798;BME280;63326;45.088;7.658;2024-03-23T07:20:33;98337.84;;;11.98;85.66
74798;BME280;63326;45.088;7.658;2024-03-23T07:23:01;98326.09;;;12.32;84.56
74798;BME280;63326;45.088;7.658;2024-03-23T07:25:29;98293.56;;;12.34;83.29
74798;BME280;63326;45.088;7.658;2024-03-23T07:27:57;98299.59;;;13.07;79.17
74798;BME280;63326;45.088;7.658;2024-03-23T07:30:23;98325.91;;;14.51;71.09
74798;BME280;63326;45.088;7.658;2024-03-23T07:32:50;98326.88;;;14.13;72.21
74798;BME280;63326;45.088;7.658;2024-03-23T07:35:16;98299.66;;;14.58;68.78
74798;BME280;63326;45.088;7.658;2024-03-23T07:37:42;98289.13;;;14.93;66.97
74798;BME280;63326;45.088;7.658;2024-03-23T07:40:08;98308.81;;;15.19;65.37
74798;BME280;63326;45.088;7.658;2024-03-23T07:42:35;98278.53;;;15.28;64.23
74798;BME280;63326;45.088;7.658;2024-03-23T07:45:03;98307.91;;;14.45;67.35
74798;BME280;63326;45.088;7.658;2024-03-23T07:47:29;98288.19;;;14.63;67.09
74798;BME280;63326;45.088;7.658;2024-03-23T07:49:58;98312.47;;;15.42;64.83
74798;BME280;63326;45.088;7.658;2024-03-23T07:52:28;98308.75;;;15.85;62.93
74798;BME280;63326;45.088;7.658;2024-03-23T07:54:57;98272.38;;;15.51;62.96
74798;BME280;63326;45.088;7.658;2024-03-23T07:57:25;98250.50;;;15.94;61.08
74798;BME280;63326;45.088;7.658;2024-03-23T07:59:51;98299.94;;;15.78;63.09
74798;BME280;63326;45.088;7.658;2024-03-23T08:02:19;98255.34;;;15.32;63.79
74798;BME280;63326;45.088;7.658;2024-03-23T08:04:46;98303.72;;;15.59;64.53
74798;BME280;63326;45.088;7.658;2024-03-23T08:07:13;98250.97;;;15.50;63.87
74798;BME280;63326;45.088;7.658;2024-03-23T08:09:39;98309.25;;;15.64;64.81
74798;BME280;63326;45.088;7.658;2024-03-23T08:12:06;98300.19;;;15.88;63.40
74798;BME280;63326;45.088;7.658;2024-03-23T08:14:32;98297.81;;;15.80;63.83
74798;BME280;63326;45.088;7.658;2024-03-23T08:16:58;98276.00;;;15.75;63.86
74798;BME280;63326;45.088;7.658;2024-03-23T08:19:25;98274.53;;;15.31;65.86
74798;BME280;63326;45.088;7.658;2024-03-23T08:21:52;98280.81;;;15.43;66.07
74798;BME280;63326;45.088;7.658;2024-03-23T08:24:19;98278.38;;;15.23;67.61
74798;BME280;63326;45.088;7.658;2024-03-23T08:26:46;98260.63;;;15.27;66.71
74798;BME280;63326;45.088;7.658;2024-03-23T08:29:11;98283.81;;;15.05;69.29
74798;BME280;63326;45.088;7.658;2024-03-23T08:31:39;98282.00;;;15.17;68.38
74798;BME280;63326;45.088;7.658;2024-03-23T08:34:05;98283.84;;;15.95;64.77
74798;BME280;63326;45.088;7.658;2024-03-23T08:36:31;98285.38;;;15.91;64.43
74798;BME280;63326;45.088;7.658;2024-03-23T08:38:56;98285.16;;;16.16;64.17
74798;BME280;63326;45.088;7.658;2024-03-23T08:41:23;98279.44;;;16.82;60.96
74798;BME280;63326;45.088;7.658;2024-03-23T08:43:48;98277.19;;;17.72;56.66
74798;BME280;63326;45.088;7.658;2024-03-23T08:46:16;98270.66;;;18.35;53.92
74798;BME280;63326;45.088;7.658;2024-03-23T08:48:44;98206.63;;;18.61;52.21
74798;BME280;63326;45.088;7.658;2024-03-23T08:51:15;98254.81;;;19.48;49.83
74798;BME280;63326;45.088;7.658;2024-03-23T08:53:45;98261.34;;;20.75;46.58
74798;BME280;63326;45.088;7.658;2024-03-23T08:56:11;98264.69;;;21.39;44.54
74798;BME280;63326;45.088;7.658;2024-03-23T08:58:38;98249.66;;;20.84;45.49
74798;BME280;63326;45.088;7.658;2024-03-23T09:01:13;98243.53;;;22.03;43.31
74798;BME280;63326;45.088;7.658;2024-03-23T09:03:39;98257.41;;;21.76;43.48
74798;BME280;63326;45.088;7.658;2024-03-23T09:06:10;98227.09;;;22.28;42.56
74798;BME280;63326;45.088;7.658;2024-03-23T09:08:36;98203.06;;;21.89;42.59
74798;BME280;63326;45.088;7.658;2024-03-23T09:11:13;98232.81;;;22.72;41.33
74798;BME280;63326;45.088;7.658;2024-03-23T09:13:40;98241.78;;;22.93;41.54
74798;BME280;63326;45.088;7.658;2024-03-23T09:16:09;98211.19;;;22.55;41.40
74798;BME280;63326;45.088;7.658;2024-03-23T09:18:43;98228.22;;;23.27;40.96
74798;BME280;63326;45.088;7.658;2024-03-23T09:21:15;98157.25;;;23.36;40.62
74798;BME280;63326;45.088;7.658;2024-03-23T09:23:45;98237.16;;;22.83;41.96
74798;BME280;63326;45.088;7.658;2024-03-23T09:26:13;98220.25;;;23.36;41.46
74798;BME280;63326;45.088;7.658;2024-03-23T09:28:41;98175.94;;;21.78;44.24
74798;BME280;63326;45.088;7.658;2024-03-23T09:31:08;98186.28;;;21.30;45.43
74798;BME280;63326;45.088;7.658;2024-03-23T09:33:36;98210.44;;;22.14;44.41
74798;BME280;63326;45.088;7.658;2024-03-23T09:36:04;98178.31;;;22.76;42.37
74798;BME280;63326;45.088;7.658;2024-03-23T09:38:30;98219.41;;;23.85;39.81
74798;BME280;63326;45.088;7.658;2024-03-23T09:40:57;98209.56;;;23.39;41.48
74798;BME280;63326;45.088;7.658;2024-03-23T09:43:23;98224.63;;;22.62;43.24
74798;BME280;63326;45.088;7.658;2024-03-23T09:45:50;98184.25;;;23.03;42.08
74798;BME280;63326;45.088;7.658;2024-03-23T09:48:18;98162.22;;;23.24;41.16
74798;BME280;63326;45.088;7.658;2024-03-23T09:50:45;98206.13;;;24.89;38.47
74798;BME280;63326;45.088;7.658;2024-03-23T09:53:12;98196.88;;;22.89;41.93
74798;BME280;63326;45.088;7.658;2024-03-23T09:55:39;98179.75;;;22.43;42.95
74798;BME280;63326;45.088;7.658;2024-03-23T09:58:08;98189.09;;;22.21;43.26
74798;BME280;63326;45.088;7.658;2024-03-23T10:00:35;98146.44;;;21.39;45.27
74798;BME280;63326;45.088;7.658;2024-03-23T10:03:06;98185.84;;;22.09;44.06
74798;BME280;63326;45.088;7.658;2024-03-23T10:05:33;98140.44;;;21.52;45.04
74798;BME280;63326;45.088;7.658;2024-03-23T10:08:18;98131.41;;;21.77;44.71
74798;BME280;63326;45.088;7.658;2024-03-23T10:10:46;98137.91;;;21.15;45.84
74798;BME280;63326;45.088;7.658;2024-03-23T10:13:28;98178.63;;;21.32;46.00
74798;BME280;63326;45.088;7.658;2024-03-23T10:15:58;98167.25;;;21.91;45.07
74798;BME280;63326;45.088;7.658;2024-03-23T10:18:26;98081.31;;;21.05;46.14
74798;BME280;63326;45.088;7.658;2024-03-23T10:23:37;98139.59;;;21.62;45.41
74798;BME280;63326;45.088;7.658;2024-03-23T10:26:23;98069.34;;;22.13;44.07
74798;BME280;63326;45.088;7.658;2024-03-23T10:31:20;98089.41;;;22.68;42.94
74798;BME280;63326;45.088;7.658;2024-03-23T10:33:51;98077.56;;;23.27;42.45
74798;BME280;63326;45.088;7.658;2024-03-23T10:36:24;98051.41;;;23.06;42.19
74798;BME280;63326;45.088;7.658;2024-03-23T10:38:53;98092.56;;;22.91;42.77
74798;BME280;63326;45.088;7.658;2024-03-23T10:41:19;98085.22;;;21.81;45.44
74798;BME280;63326;45.088;7.658;2024-03-23T10:43:48;98069.09;;;21.99;44.62
74798;BME280;63326;45.088;7.658;2024-03-23T10:46:16;98049.97;;;21.79;44.65
74798;BME280;63326;45.088;7.658;2024-03-23T10:48:44;98070.72;;;22.80;42.46
74798;BME280;63326;45.088;7.658;2024-03-23T10:51:14;98038.25;;;22.59;42.42
74798;BME280;63326;45.088;7.658;2024-03-23T10:53:41;98060.34;;;21.77;44.65
74798;BME280;63326;45.088;7.658;2024-03-23T10:56:10;98034.28;;;22.31;43.25
74798;BME280;63326;45.088;7.658;2024-03-23T10:58:45;98033.19;;;22.91;42.00
74798;BME280;63326;45.088;7.658;2024-03-23T11:01:17;98012.25;;;22.56;42.87
74798;BME280;63326;45.088;7.658;2024-03-23T11:03:47;98024.19;;;22.21;43.88
74798;BME280;63326;45.088;7.658;2024-03-23T11:06:38;98032.03;;;22.38;42.26
74798;BME280;63326;45.088;7.658;2024-03-23T11:12:29;98021.25;;;22.02;43.39
74798;BME280;63326;45.088;7.658;2024-03-23T11:15:00;98021.34;;;22.96;41.67
74798;BME280;63326;45.088;7.658;2024-03-23T11:17:27;97973.06;;;22.16;42.43
74798;BME280;63326;45.088;7.658;2024-03-23T11:19:56;97990.19;;;21.42;44.67
74798;BME280;63326;45.088;7.658;2024-03-23T11:22:43;98022.09;;;21.06;45.78
74798;BME280;63326;45.088;7.658;2024-03-23T11:25:22;97989.13;;;21.28;45.72
74798;BME280;63326;45.088;7.658;2024-03-23T11:28:11;97972.19;;;21.10;45.63
74798;BME280;63326;45.088;7.658;2024-03-23T11:30:37;97983.09;;;21.10;45.76
74798;BME280;63326;45.088;7.658;2024-03-23T11:33:06;97981.41;;;20.74;47.00
74798;BME280;63326;45.088;7.658;2024-03-23T11:35:36;97966.69;;;21.26;45.61
74798;BME280;63326;45.088;7.658;2024-03-23T11:38:13;97977.03;;;21.64;45.47
74798;BME280;63326;45.088;7.658;2024-03-23T11:40:39;97986.06;;;20.89;46.89
74798;BME280;63326;45.088;7.658;2024-03-23T11:43:12;97981.69;;;20.05;48.80
74798;BME280;63326;45.088;7.658;2024-03-23T11:45:49;97962.50;;;20.26;47.07
74798;BME280;63326;45.088;7.658;2024-03-23T11:48:22;97931.28;;;19.97;47.88
74798;BME280;63326;45.088;7.658;2024-03-23T11:50:49;97952.22;;;19.91;48.22
74798;BME280;63326;45.088;7.658;2024-03-23T11:53:21;97952.22;;;19.86;48.42
74798;BME280;63326;45.088;7.658;2024-03-23T11:55:52;97948.41;;;19.87;49.15
74798;BME280;63326;45.088;7.658;2024-03-23T11:58:23;97923.59;;;19.36;49.54
74798;BME280;63326;45.088;7.658;2024-03-23T12:01:00;97920.47;;;19.55;49.27
74798;BME280;63326;45.088;7.658;2024-03-23T12:03:32;97905.31;;;19.74;48.85
74798;BME280;63326;45.088;7.658;2024-03-23T12:06:02;97918.28;;;19.57;49.05
74798;BME280;63326;45.088;7.658;2024-03-23T12:13:33;97913.94;;;19.61;49.15
74798;BME280;63326;45.088;7.658;2024-03-23T12:16:10;97867.75;;;19.86;47.80
74798;BME280;63326;45.088;7.658;2024-03-23T12:18:42;97893.88;;;19.82;48.38
74798;BME280;63326;45.088;7.658;2024-03-23T12:21:09;97893.66;;;20.04;48.13
74798;BME280;63326;45.088;7.658;2024-03-23T12:23:39;97901.09;;;20.19;47.41
74798;BME280;63326;45.088;7.658;2024-03-23T12:26:06;97896.09;;;19.85;47.71
74798;BME280;63326;45.088;7.658;2024-03-23T12:28:33;97894.16;;;19.81;49.40
74798;BME280;63326;45.088;7.658;2024-03-23T12:31:01;97850.63;;;19.33;50.38
74798;BME280;63326;45.088;7.658;2024-03-23T12:33:28;97848.41;;;19.88;49.35
74798;BME280;63326;45.088;7.658;2024-03-23T12:35:58;97863.19;;;20.07;48.70
74798;BME280;63326;45.088;7.658;2024-03-23T12:38:25;97790.25;;;19.47;49.55
74798;BME280;63326;45.088;7.658;2024-03-23T12:40:52;97821.44;;;19.86;49.09
74798;BME280;63326;45.088;7.658;2024-03-23T12:43:19;97828.34;;;20.30;47.88
74798;BME280;63326;45.088;7.658;2024-03-23T12:45:48;97861.63;;;20.52;46.99
74798;BME280;63326;45.088;7.658;2024-03-23T12:48:18;97860.53;;;20.68;45.83
74798;BME280;63326;45.088;7.658;2024-03-23T12:50:45;97858.59;;;20.84;46.40
74798;BME280;63326;45.088;7.658;2024-03-23T12:53:11;97836.78;;;20.99;45.69
74798;BME280;63326;45.088;7.658;2024-03-23T12:55:38;97790.69;;;20.21;46.84
74798;BME280;63326;45.088;7.658;2024-03-23T12:58:04;97844.97;;;20.89;45.61
74798;BME280;63326;45.088;7.658;2024-03-23T13:00:30;97774.88;;;20.18;46.44
74798;BME280;63326;45.088;7.658;2024-03-23T13:02:56;97815.50;;;20.81;44.57
74798;BME280;63326;45.088;7.658;2024-03-23T13:05:22;97824.78;;;20.65;44.98
74798;BME280;63326;45.088;7.658;2024-03-23T13:07:48;97833.78;;;20.80;42.20
74798;BME280;63326;45.088;7.658;2024-03-23T13:10:14;97785.50;;;20.55;42.23
74798;BME280;63326;45.088;7.658;2024-03-23T13:12:43;97828.63;;;20.69;40.04
74798;BME280;63326;45.088;7.658;2024-03-23T13:15:09;97775.97;;;20.68;36.77
74798;BME280;63326;45.088;7.658;2024-03-23T13:17:35;97848.75;;;21.03;32.54
74798;BME280;63326;45.088;7.658;2024-03-23T13:20:02;97815.78;;;20.54;28.61
74798;BME280;63326;45.088;7.658;2024-03-23T13:22:32;97791.22;;;20.08;28.42
74798;BME280;63326;45.088;7.658;2024-03-23T13:24:58;97828.34;;;20.50;26.99
74798;BME280;63326;45.088;7.658;2024-03-23T13:27:27;97843.09;;;20.59;23.44
74798;BME280;63326;45.088;7.658;2024-03-23T13:29:55;97809.25;;;20.40;18.01
74798;BME280;63326;45.088;7.658;2024-03-23T13:32:21;97728.53;;;19.88;16.07
74798;BME280;63326;45.088;7.658;2024-03-23T13:34:47;97745.13;;;19.81;15.41
74798;BME280;63326;45.088;7.658;2024-03-23T13:37:16;97820.97;;;20.35;15.24
74798;BME280;63326;45.088;7.658;2024-03-23T13:39:42;97651.00;;;19.07;14.94
74798;BME280;63326;45.088;7.658;2024-03-23T13:42:09;97818.53;;;20.34;15.08
74798;BME280;63326;45.088;7.658;2024-03-23T13:44:35;97733.16;;;20.03;14.86
74798;BME280;63326;45.088;7.658;2024-03-23T13:47:03;97725.53;;;19.89;14.97
74798;BME280;63326;45.088;7.658;2024-03-23T13:49:30;97794.72;;;19.83;14.48
74798;BME280;63326;45.088;7.658;2024-03-23T13:51:58;97825.03;;;20.17;14.37
74798;BME280;63326;45.088;7.658;2024-03-23T13:54:26;97769.34;;;19.73;14.27
74798;BME280;63326;45.088;7.658;2024-03-23T13:56:54;97781.41;;;20.17;14.44
74798;BME280;63326;45.088;7.658;2024-03-23T13:59:23;97665.47;;;19.18;14.09
74798;BME280;63326;45.088;7.658;2024-03-23T14:01:50;97836.25;;;20.31;13.70
74798;BME280;63326;45.088;7.658;2024-03-23T14:04:16;97811.66;;;20.00;12.90
74798;BME280;63326;45.088;7.658;2024-03-23T14:06:46;97827.72;;;20.02;12.57
74798;BME280;63326;45.088;7.658;2024-03-23T14:09:12;97831.84;;;20.10;12.48
74798;BME280;63326;45.088;7.658;2024-03-23T14:11:41;97808.91;;;19.85;12.21